sensor_id;sensor_type;location;lat;lon;timestamp;pressure;altitude;pressure_sealevel;temperature;humidity
83664;BME280;73634;47.068;15.426;2023-12-04T00:00:22;98197.50;;;-5.10;85.06
83664;BME280;73634;47.068;15.426;2023-12-04T00:02:47;98191.31;;;-5.08;85.10
83664;BME280;73634;47.068;15.426;2023-12-04T00:05:13;98198.28;;;-5.10;84.93
83664;BME280;73634;47.068;15.426;2023-12-04T00:07:38;98187.66;;;-5.13;84.87
83664;BME280;73634;47.068;15.426;2023-12-04T00:10:04;98188.00;;;-5.24;85.90
83664;BME280;73634;47.068;15.426;2023-12-04T00:14:31;98198.94;;;-5.24;85.80
83664;BME280;73634;47.068;15.426;2023-12-04T00:16:56;98192.28;;;-5.25;86.33
83664;BME280;73634;47.068;15.426;2023-12-04T00:19:21;98197.50;;;-5.26;86.02
83664;BME280;73634;47.068;15.426;2023-12-04T00:21:47;98188.63;;;-5.30;85.98
83664;BME280;73634;47.068;15.426;2023-12-04T00:24:12;98193.53;;;-5.29;86.39
83664;BME280;73634;47.068;15.426;2023-12-04T00:26:38;98188.00;;;-5.24;86.39
83664;BME280;73634;47.068;15.426;2023-12-04T00:29:03;98184.97;;;-5.36;86.59
83664;BME280;73634;47.068;15.426;2023-12-04T00:31:28;98193.53;;;-5.37;86.15
83664;BME280;73634;47.068;15.426;2023-12-04T00:33:54;98191.31;;;-5.40;86.09
83664;BME280;73634;47.068;15.426;2023-12-04T00:36:19;98192.41;;;-5.43;86.35
83664;BME280;73634;47.068;15.426;2023-12-04T00:40:57;98191.75;;;-5.53;86.49
83664;BME280;73634;47.068;15.426;2023-12-04T00:43:22;98193.97;;;-5.50;86.28
83664;BME280;73634;47.068;15.426;2023-12-04T00:45:48;98203.50;;;-5.52;86.69
83664;BME280;73634;47.068;15.426;2023-12-04T00:48:13;98194.44;;;-5.54;86.43
83664;BME280;73634;47.068;15.426;2023-12-04T00:50:38;98199.38;;;-5.53;86.36
83664;BME280;73634;47.068;15.426;2023-12-04T00:53:04;98188.91;;;-5.50;86.33
83664;BME280;73634;47.068;15.426;2023-12-04T00:55:29;98189.22;;;-5.53;85.95
83664;BME280;73634;47.068;15.426;2023-12-04T00:57:54;98198.09;;;-5.49;85.77
83664;BME280;73634;47.068;15.426;2023-12-04T01:00:20;98189.25;;;-5.45;85.67
83664;BME280;73634;47.068;15.426;2023-12-04T01:02:45;98195.09;;;-5.44;85.53
83664;BME280;73634;47.068;15.426;2023-12-04T01:07:09;98189.22;;;-5.53;85.16
83664;BME280;73634;47.068;15.426;2023-12-04T01:09:35;98184.47;;;-5.56;85.31
83664;BME280;73634;47.068;15.426;2023-12-04T01:12:01;98182.88;;;-5.57;85.55
83664;BME280;73634;47.068;15.426;2023-12-04T01:14:26;98172.91;;;-5.58;85.68
83664;BME280;73634;47.068;15.426;2023-12-04T01:16:51;98167.03;;;-5.59;85.48
83664;BME280;73634;47.068;15.426;2023-12-04T01:19:17;98169.56;;;-5.59;85.91
83664;BME280;73634;47.068;15.426;2023-12-04T01:21:42;98172.75;;;-5.57;85.80
83664;BME280;73634;47.068;15.426;2023-12-04T01:24:07;98165.28;;;-5.58;86.06
83664;BME280;73634;47.068;15.426;2023-12-04T01:26:33;98157.69;;;-5.58;86.35
83664;BME280;73634;47.068;15.426;2023-12-04T01:31:35;98160.56;;;-5.37;82.51
83664;BME280;73634;47.068;15.426;2023-12-04T01:34:00;98162.16;;;-5.36;80.72
83664;BME280;73634;47.068;15.426;2023-12-04T01:36:26;98163.91;;;-5.37;79.79
83664;BME280;73634;47.068;15.426;2023-12-04T01:38:51;98169.91;;;-5.38;79.82
83664;BME280;73634;47.068;15.426;2023-12-04T01:41:17;98171.66;;;-5.38;79.26
83664;BME280;73634;47.068;15.426;2023-12-04T01:43:42;98159.63;;;-5.36;78.86
83664;BME280;73634;47.068;15.426;2023-12-04T01:46:08;98161.19;;;-5.43;78.43
83664;BME280;73634;47.068;15.426;2023-12-04T01:48:36;98152.00;;;-5.44;78.65
83664;BME280;73634;47.068;15.426;2023-12-04T01:51:06;98143.91;;;-5.40;78.62
83664;BME280;73634;47.068;15.426;2023-12-04T01:56:10;98163.88;;;-5.53;78.71
83664;BME280;73634;47.068;15.426;2023-12-04T01:58:36;98157.22;;;-5.46;78.95
83664;BME280;73634;47.068;15.426;2023-12-04T02:01:03;98151.22;;;-5.45;78.92
83664;BME280;73634;47.068;15.426;2023-12-04T02:03:28;98156.91;;;-5.51;79.31
83664;BME280;73634;47.068;15.426;2023-12-04T02:05:54;98154.50;;;-5.77;82.76
83664;BME280;73634;47.068;15.426;2023-12-04T02:08:20;98152.41;;;-5.97;84.96
83664;BME280;73634;47.068;15.426;2023-12-04T02:10:46;98155.41;;;-6.10;85.51
83664;BME280;73634;47.068;15.426;2023-12-04T02:13:11;98157.31;;;-6.12;85.93
83664;BME280;73634;47.068;15.426;2023-12-04T02:15:37;98152.69;;;-6.17;86.58
83664;BME280;73634;47.068;15.426;2023-12-04T02:18:03;98149.00;;;-6.30;88.05
83664;BME280;73634;47.068;15.426;2023-12-04T02:22:21;98146.63;;;-6.32;88.29
83664;BME280;73634;47.068;15.426;2023-12-04T02:24:47;98141.22;;;-6.37;88.48
83664;BME280;73634;47.068;15.426;2023-12-04T02:27:18;98139.78;;;-6.40;88.35
83664;BME280;73634;47.068;15.426;2023-12-04T02:29:54;98135.56;;;-6.31;88.25
83664;BME280;73634;47.068;15.426;2023-12-04T02:32:21;98141.25;;;-6.29;87.87
83664;BME280;73634;47.068;15.426;2023-12-04T02:34:49;98136.84;;;-6.27;87.98
83664;BME280;73634;47.068;15.426;2023-12-04T02:37:16;98137.47;;;-6.25;88.31
83664;BME280;73634;47.068;15.426;2023-12-04T02:39:43;98137.47;;;-6.25;88.14
83664;BME280;73634;47.068;15.426;2023-12-04T02:42:09;98138.25;;;-6.24;88.11
83664;BME280;73634;47.068;15.426;2023-12-04T02:46:48;98138.72;;;-6.29;87.99
83664;BME280;73634;47.068;15.426;2023-12-04T02:49:13;98153.28;;;-6.31;87.61
83664;BME280;73634;47.068;15.426;2023-12-04T02:51:42;98144.53;;;-6.36;87.03
83664;BME280;73634;47.068;15.426;2023-12-04T02:54:07;98148.22;;;-6.31;86.68
83664;BME280;73634;47.068;15.426;2023-12-04T02:56:33;98141.91;;;-6.27;86.89
83664;BME280;73634;47.068;15.426;2023-12-04T02:58:58;98149.03;;;-6.22;86.60
83664;BME280;73634;47.068;15.426;2023-12-04T03:01:23;98138.25;;;-6.24;86.71
83664;BME280;73634;47.068;15.426;2023-12-04T03:03:49;98137.31;;;-6.23;87.01
83664;BME280;73634;47.068;15.426;2023-12-04T03:06:14;98135.09;;;-6.26;86.86
83664;BME280;73634;47.068;15.426;2023-12-04T03:11:13;98132.53;;;-6.34;87.24
83664;BME280;73634;47.068;15.426;2023-12-04T03:13:39;98131.44;;;-6.32;87.57
83664;BME280;73634;47.068;15.426;2023-12-04T03:16:04;98131.91;;;-6.28;87.53
83664;BME280;73634;47.068;15.426;2023-12-04T03:18:30;98135.09;;;-6.26;86.98
83664;BME280;73634;47.068;15.426;2023-12-04T03:20:56;98134.78;;;-6.23;86.36
83664;BME280;73634;47.068;15.426;2023-12-04T03:23:21;98127.69;;;-6.20;84.63
83664;BME280;73634;47.068;15.426;2023-12-04T03:25:47;98129.41;;;-6.20;83.49
83664;BME280;73634;47.068;15.426;2023-12-04T03:28:12;98130.69;;;-6.16;82.19
83664;BME280;73634;47.068;15.426;2023-12-04T03:33:23;98120.13;;;-6.12;81.08
83664;BME280;73634;47.068;15.426;2023-12-04T03:35:49;98120.13;;;-6.12;81.06
83664;BME280;73634;47.068;15.426;2023-12-04T03:38:14;98123.75;;;-6.14;80.64
83664;BME280;73634;47.068;15.426;2023-12-04T03:40:39;98126.13;;;-6.13;80.53
83664;BME280;73634;47.068;15.426;2023-12-04T03:43:05;98121.69;;;-6.11;79.89
83664;BME280;73634;47.068;15.426;2023-12-04T03:45:30;98122.94;;;-6.15;80.31
83664;BME280;73634;47.068;15.426;2023-12-04T03:47:55;98116.59;;;-6.19;80.30
83664;BME280;73634;47.068;15.426;2023-12-04T03:50:21;98103.16;;;-6.19;80.53
83664;BME280;73634;47.068;15.426;2023-12-04T03:52:46;98112.34;;;-6.18;80.10
83664;BME280;73634;47.068;15.426;2023-12-04T03:57:52;98103.63;;;-6.16;79.82
83664;BME280;73634;47.068;15.426;2023-12-04T04:00:17;98109.31;;;-6.22;80.06
83664;BME280;73634;47.068;15.426;2023-12-04T04:02:43;98106.47;;;-6.19;80.16
83664;BME280;73634;47.068;15.426;2023-12-04T04:05:09;98105.03;;;-6.21;80.22
83664;BME280;73634;47.068;15.426;2023-12-04T04:07:35;98099.50;;;-6.25;79.99
83664;BME280;73634;47.068;15.426;2023-12-04T04:10:00;98098.53;;;-6.24;80.89
83664;BME280;73634;47.068;15.426;2023-12-04T04:12:27;98095.38;;;-6.26;80.40
83664;BME280;73634;47.068;15.426;2023-12-04T04:14:52;98096.16;;;-6.25;80.81
83664;BME280;73634;47.068;15.426;2023-12-04T04:19:56;98101.97;;;-6.49;81.99
83664;BME280;73634;47.068;15.426;2023-12-04T04:22:22;98107.63;;;-6.55;82.74
83664;BME280;73634;47.068;15.426;2023-12-04T04:24:48;98110.75;;;-6.61;83.02
83664;BME280;73634;47.068;15.426;2023-12-04T04:27:14;98104.25;;;-6.64;84.13
83664;BME280;73634;47.068;15.426;2023-12-04T04:29:39;98099.19;;;-6.64;84.09
83664;BME280;73634;47.068;15.426;2023-12-04T04:32:05;98098.56;;;-6.66;84.28
83664;BME280;73634;47.068;15.426;2023-12-04T04:34:30;98096.56;;;-6.54;84.25
83664;BME280;73634;47.068;15.426;2023-12-04T04:36:56;98101.31;;;-6.51;83.97
83664;BME280;73634;47.068;15.426;2023-12-04T04:41:59;98102.31;;;-6.44;83.07
83664;BME280;73634;47.068;15.426;2023-12-04T04:44:24;98098.97;;;-6.45;82.66
83664;BME280;73634;47.068;15.426;2023-12-04T04:46:49;98106.13;;;-6.40;83.01
83664;BME280;73634;47.068;15.426;2023-12-04T04:49:15;98101.19;;;-6.42;83.13
83664;BME280;73634;47.068;15.426;2023-12-04T04:51:40;98104.53;;;-6.41;83.09
83664;BME280;73634;47.068;15.426;2023-12-04T04:54:05;98099.91;;;-6.46;82.53
83664;BME280;73634;47.068;15.426;2023-12-04T04:56:31;98103.84;;;-6.51;82.76
83664;BME280;73634;47.068;15.426;2023-12-04T04:58:56;98105.75;;;-6.53;82.53
83664;BME280;73634;47.068;15.426;2023-12-04T05:01:21;98101.97;;;-6.49;82.74
83664;BME280;73634;47.068;15.426;2023-12-04T05:05:40;98106.06;;;-6.48;82.62
83664;BME280;73634;47.068;15.426;2023-12-04T05:08:05;98097.47;;;-6.63;84.89
83664;BME280;73634;47.068;15.426;2023-12-04T05:10:31;98105.56;;;-6.60;84.74
83664;BME280;73634;47.068;15.426;2023-12-04T05:12:57;98096.88;;;-6.57;85.27
83664;BME280;73634;47.068;15.426;2023-12-04T05:15:22;98100.81;;;-6.55;85.55
83664;BME280;73634;47.068;15.426;2023-12-04T05:17:48;98107.94;;;-6.58;85.61
83664;BME280;73634;47.068;15.426;2023-12-04T05:20:13;98113.28;;;-6.61;86.02
83664;BME280;73634;47.068;15.426;2023-12-04T05:22:39;98112.94;;;-6.66;85.92
83664;BME280;73634;47.068;15.426;2023-12-04T05:27:36;98108.13;;;-6.86;86.56
83664;BME280;73634;47.068;15.426;2023-12-04T05:30:01;98107.97;;;-6.84;86.52
83664;BME280;73634;47.068;15.426;2023-12-04T05:32:27;98110.66;;;-6.86;86.04
83664;BME280;73634;47.068;15.426;2023-12-04T05:34:52;98116.66;;;-6.87;86.93
83664;BME280;73634;47.068;15.426;2023-12-04T05:37:18;98109.97;;;-6.96;87.66
83664;BME280;73634;47.068;15.426;2023-12-04T05:39:43;98105.75;;;-7.13;88.23
83664;BME280;73634;47.068;15.426;2023-12-04T05:42:08;98108.63;;;-7.08;87.75
83664;BME280;73634;47.068;15.426;2023-12-04T05:44:34;98101.59;;;-6.96;87.42
83664;BME280;73634;47.068;15.426;2023-12-04T05:47:00;98101.44;;;-6.95;87.51
83664;BME280;73634;47.068;15.426;2023-12-04T05:51:58;98106.84;;;-6.90;86.93
83664;BME280;73634;47.068;15.426;2023-12-04T05:54:23;98100.41;;;-6.84;87.03
83664;BME280;73634;47.068;15.426;2023-12-04T05:56:49;98098.38;;;-6.73;84.93
83664;BME280;73634;47.068;15.426;2023-12-04T05:59:14;98099.50;;;-6.67;84.35
83664;BME280;73634;47.068;15.426;2023-12-04T06:01:40;98101.53;;;-6.70;84.58
83664;BME280;73634;47.068;15.426;2023-12-04T06:04:05;98095.81;;;-6.81;85.20
83664;BME280;73634;47.068;15.426;2023-12-04T06:06:30;98091.56;;;-6.80;85.20
83664;BME280;73634;47.068;15.426;2023-12-04T06:08:56;98093.00;;;-6.69;84.98
83664;BME280;73634;47.068;15.426;2023-12-04T06:11:21;98092.22;;;-6.70;84.78
83664;BME280;73634;47.068;15.426;2023-12-04T06:16:19;98097.72;;;-6.83;85.61
83664;BME280;73634;47.068;15.426;2023-12-04T06:18:44;98086.16;;;-6.85;85.65
83664;BME280;73634;47.068;15.426;2023-12-04T06:21:09;98100.25;;;-6.83;85.83
83664;BME280;73634;47.068;15.426;2023-12-04T06:23:35;98099.75;;;-6.86;86.37
83664;BME280;73634;47.068;15.426;2023-12-04T06:26:01;98107.13;;;-6.93;86.63
83664;BME280;73634;47.068;15.426;2023-12-04T06:28:26;98105.84;;;-6.97;86.89
83664;BME280;73634;47.068;15.426;2023-12-04T06:30:52;98104.16;;;-6.88;87.41
83664;BME280;73634;47.068;15.426;2023-12-04T06:33:17;98103.88;;;-6.85;87.19
83664;BME280;73634;47.068;15.426;2023-12-04T06:35:44;98098.50;;;-6.82;87.28
83664;BME280;73634;47.068;15.426;2023-12-04T06:38:14;98101.97;;;-6.83;87.13
83664;BME280;73634;47.068;15.426;2023-12-04T06:43:38;98089.66;;;-6.78;86.28
83664;BME280;73634;47.068;15.426;2023-12-04T06:46:04;98096.19;;;-6.67;85.87
83664;BME280;73634;47.068;15.426;2023-12-04T06:48:31;98086.44;;;-6.54;85.13
83664;BME280;73634;47.068;15.426;2023-12-04T06:50:56;98091.22;;;-6.77;85.95
83664;BME280;73634;47.068;15.426;2023-12-04T06:53:22;98091.91;;;-6.67;84.92
83664;BME280;73634;47.068;15.426;2023-12-04T06:55:47;98091.38;;;-6.79;85.61
83664;BME280;73634;47.068;15.426;2023-12-04T06:58:12;98093.50;;;-6.66;85.46
83664;BME280;73634;47.068;15.426;2023-12-04T07:00:38;98087.84;;;-6.60;85.36
83664;BME280;73634;47.068;15.426;2023-12-04T07:03:03;98084.09;;;-6.48;84.97
83664;BME280;73634;47.068;15.426;2023-12-04T07:08:01;98084.94;;;-6.23;83.51
83664;BME280;73634;47.068;15.426;2023-12-04T07:10:26;98085.28;;;-6.10;83.73
83664;BME280;73634;47.068;15.426;2023-12-04T07:12:51;98091.16;;;-6.09;83.38
83664;BME280;73634;47.068;15.426;2023-12-04T07:15:17;98096.53;;;-5.96;83.46
83664;BME280;73634;47.068;15.426;2023-12-04T07:17:42;98098.44;;;-5.65;81.63
83664;BME280;73634;47.068;15.426;2023-12-04T07:20:08;98101.13;;;-5.59;81.25
83664;BME280;73634;47.068;15.426;2023-12-04T07:22:34;98090.03;;;-5.42;80.85
83664;BME280;73634;47.068;15.426;2023-12-04T07:24:59;98092.88;;;-5.37;79.84
83664;BME280;73634;47.068;15.426;2023-12-04T07:27:25;98085.09;;;-5.19;79.62
83664;BME280;73634;47.068;15.426;2023-12-04T07:31:42;98090.44;;;-4.89;78.31
83664;BME280;73634;47.068;15.426;2023-12-04T07:34:07;98088.22;;;-4.92;77.70
83664;BME280;73634;47.068;15.426;2023-12-04T07:36:33;98094.16;;;-5.49;79.74
83664;BME280;73634;47.068;15.426;2023-12-04T07:38:58;98089.09;;;-5.32;80.84
83664;BME280;73634;47.068;15.426;2023-12-04T07:41:23;98087.78;;;-5.12;79.60
83664;BME280;73634;47.068;15.426;2023-12-04T07:43:49;98085.97;;;-4.87;78.53
83664;BME280;73634;47.068;15.426;2023-12-04T07:46:15;98082.13;;;-4.75;78.56
83664;BME280;73634;47.068;15.426;2023-12-04T07:48:40;98083.00;;;-4.52;77.65
83664;BME280;73634;47.068;15.426;2023-12-04T07:51:06;98080.53;;;-4.37;77.22
83664;BME280;73634;47.068;15.426;2023-12-04T07:55:08;98080.69;;;-4.39;75.84
83664;BME280;73634;47.068;15.426;2023-12-04T07:57:33;98079.56;;;-4.36;75.86
83664;BME280;73634;47.068;15.426;2023-12-04T07:59:58;98084.22;;;-4.09;75.67
83664;BME280;73634;47.068;15.426;2023-12-04T08:02:24;98074.66;;;-3.84;74.73
83664;BME280;73634;47.068;15.426;2023-12-04T08:04:49;98071.72;;;-2.11;68.04
83664;BME280;73634;47.068;15.426;2023-12-04T08:07:14;98065.72;;;-1.60;65.32
83664;BME280;73634;47.068;15.426;2023-12-04T08:09:40;98073.66;;;-2.13;65.77
83664;BME280;73634;47.068;15.426;2023-12-04T08:12:06;98065.66;;;-1.88;64.94
83664;BME280;73634;47.068;15.426;2023-12-04T08:14:32;98069.94;;;-1.18;63.67
83664;BME280;73634;47.068;15.426;2023-12-04T08:17:48;98060.56;;;-1.11;62.71
83664;BME280;73634;47.068;15.426;2023-12-04T08:20:13;98069.72;;;-1.23;62.19
83664;BME280;73634;47.068;15.426;2023-12-04T08:22:40;98057.03;;;-1.10;63.35
83664;BME280;73634;47.068;15.426;2023-12-04T08:25:07;98058.84;;;-0.63;61.89
83664;BME280;73634;47.068;15.426;2023-12-04T08:27:32;98047.31;;;1.32;56.25
83664;BME280;73634;47.068;15.426;2023-12-04T08:32:25;98018.00;;;5.51;43.57
83664;BME280;73634;47.068;15.426;2023-12-04T08:34:51;98008.47;;;7.02;39.80
83664;BME280;73634;47.068;15.426;2023-12-04T08:37:18;97997.88;;;9.27;34.04
83664;BME280;73634;47.068;15.426;2023-12-04T08:42:59;98009.78;;;8.02;33.84
83664;BME280;73634;47.068;15.426;2023-12-04T08:45:24;98013.47;;;7.52;36.15
83664;BME280;73634;47.068;15.426;2023-12-04T08:47:50;98007.78;;;8.36;34.07
83664;BME280;73634;47.068;15.426;2023-12-04T08:50:15;98005.41;;;7.76;34.69
83664;BME280;73634;47.068;15.426;2023-12-04T08:52:41;98011.28;;;4.28;42.85
83664;BME280;73634;47.068;15.426;2023-12-04T08:55:07;98024.50;;;4.90;41.91
83664;BME280;73634;47.068;15.426;2023-12-04T08:57:32;98015.97;;;6.82;38.87
83664;BME280;73634;47.068;15.426;2023-12-04T08:59:58;98020.41;;;7.74;36.66
83664;BME280;73634;47.068;15.426;2023-12-04T09:02:23;98002.72;;;9.96;32.65
83664;BME280;73634;47.068;15.426;2023-12-04T09:07:21;98009.00;;;8.28;34.68
83664;BME280;73634;47.068;15.426;2023-12-04T09:09:46;97999.63;;;6.98;36.46
83664;BME280;73634;47.068;15.426;2023-12-04T09:12:11;98008.28;;;6.87;37.64
83664;BME280;73634;47.068;15.426;2023-12-04T09:14:37;97987.28;;;9.39;32.83
83664;BME280;73634;47.068;15.426;2023-12-04T09:17:03;97985.81;;;10.50;30.33
83664;BME280;73634;47.068;15.426;2023-12-04T09:19:29;97972.91;;;14.53;24.53
83664;BME280;73634;47.068;15.426;2023-12-04T09:21:54;97972.97;;;13.03;25.99
83664;BME280;73634;47.068;15.426;2023-12-04T09:24:20;97971.81;;;14.08;25.06
83664;BME280;73634;47.068;15.426;2023-12-04T09:26:45;97964.09;;;13.65;25.39
83664;BME280;73634;47.068;15.426;2023-12-04T09:30:46;97955.16;;;15.05;23.96
83664;BME280;73634;47.068;15.426;2023-12-04T09:33:11;97945.47;;;15.55;22.67
83664;BME280;73634;47.068;15.426;2023-12-04T09:35:37;97943.75;;;12.53;26.52
83664;BME280;73634;47.068;15.426;2023-12-04T09:38:02;97941.53;;;13.32;25.07
83664;BME280;73634;47.068;15.426;2023-12-04T09:40:27;97947.84;;;13.31;24.87
83664;BME280;73634;47.068;15.426;2023-12-04T09:42:53;97938.94;;;12.65;26.71
83664;BME280;73634;47.068;15.426;2023-12-04T09:45:19;97933.34;;;14.96;23.43
83664;BME280;73634;47.068;15.426;2023-12-04T09:47:47;97920.59;;;15.53;22.71
83664;BME280;73634;47.068;15.426;2023-12-04T09:50:14;97925.84;;;12.71;25.23
83664;BME280;73634;47.068;15.426;2023-12-04T09:55:15;97918.44;;;11.62;27.62
83664;BME280;73634;47.068;15.426;2023-12-04T09:57:41;97920.13;;;11.87;27.01
83664;BME280;73634;47.068;15.426;2023-12-04T10:00:09;97909.50;;;12.07;27.10
83664;BME280;73634;47.068;15.426;2023-12-04T10:02:35;97901.91;;;13.06;24.95
83664;BME280;73634;47.068;15.426;2023-12-04T10:05:01;97898.81;;;14.53;23.57
83664;BME280;73634;47.068;15.426;2023-12-04T10:07:30;97885.00;;;15.02;23.09
83664;BME280;73634;47.068;15.426;2023-12-04T10:09:55;97886.69;;;13.32;24.81
83664;BME280;73634;47.068;15.426;2023-12-04T10:12:20;97880.56;;;12.32;26.38
83664;BME280;73634;47.068;15.426;2023-12-04T10:15:05;97877.78;;;11.61;27.37
83664;BME280;73634;47.068;15.426;2023-12-04T10:20:25;97850.00;;;15.56;22.13
83664;BME280;73634;47.068;15.426;2023-12-04T10:22:58;97853.38;;;14.02;23.73
83664;BME280;73634;47.068;15.426;2023-12-04T10:25:29;97858.19;;;13.82;23.79
83664;BME280;73634;47.068;15.426;2023-12-04T10:28:08;97846.78;;;13.91;24.02
83664;BME280;73634;47.068;15.426;2023-12-04T10:30:33;97850.28;;;13.54;24.72
83664;BME280;73634;47.068;15.426;2023-12-04T10:33:04;97839.16;;;13.62;25.10
83664;BME280;73634;47.068;15.426;2023-12-04T10:35:31;97833.94;;;14.36;23.77
83664;BME280;73634;47.068;15.426;2023-12-04T10:37:58;97835.88;;;12.15;26.27
83664;BME280;73634;47.068;15.426;2023-12-04T10:43:19;97834.47;;;8.18;32.39
83664;BME280;73634;47.068;15.426;2023-12-04T10:45:46;97831.16;;;8.95;31.52
83664;BME280;73634;47.068;15.426;2023-12-04T10:48:14;97826.69;;;8.65;32.72
83664;BME280;73634;47.068;15.426;2023-12-04T10:50:41;97824.78;;;8.03;33.57
83664;BME280;73634;47.068;15.426;2023-12-04T10:53:12;97828.03;;;7.14;35.94
83664;BME280;73634;47.068;15.426;2023-12-04T10:55:38;97829.41;;;5.24;39.71
83664;BME280;73634;47.068;15.426;2023-12-04T10:58:15;97818.97;;;5.97;39.04
83664;BME280;73634;47.068;15.426;2023-12-04T11:05:45;97814.72;;;5.24;40.42
83664;BME280;73634;47.068;15.426;2023-12-04T11:08:16;97801.16;;;6.40;38.49
83664;BME280;73634;47.068;15.426;2023-12-04T11:10:45;97804.78;;;5.33;40.35
83664;BME280;73634;47.068;15.426;2023-12-04T11:13:34;97806.72;;;5.09;40.54
83664;BME280;73634;47.068;15.426;2023-12-04T11:16:02;97794.66;;;3.66;43.86
83664;BME280;73634;47.068;15.426;2023-12-04T11:18:31;97808.97;;;2.49;48.15
83664;BME280;73634;47.068;15.426;2023-12-04T11:21:02;97812.00;;;0.40;52.63
83664;BME280;73634;47.068;15.426;2023-12-04T11:23:32;97809.00;;;-0.28;55.98
83664;BME280;73634;47.068;15.426;2023-12-04T11:25:58;97803.69;;;-0.07;55.91
83664;BME280;73634;47.068;15.426;2023-12-04T11:31:10;97800.84;;;0.28;55.58
83664;BME280;73634;47.068;15.426;2023-12-04T11:33:37;97786.16;;;0.48;55.51
83664;BME280;73634;47.068;15.426;2023-12-04T11:36:12;97784.41;;;-0.09;56.94
83664;BME280;73634;47.068;15.426;2023-12-04T11:38:46;97779.22;;;0.11;56.69
83664;BME280;73634;47.068;15.426;2023-12-04T11:41:23;97768.84;;;0.50;55.63
83664;BME280;73634;47.068;15.426;2023-12-04T11:43:49;97765.81;;;1.48;53.22
83664;BME280;73634;47.068;15.426;2023-12-04T11:46:23;97769.69;;;1.57;53.29
83664;BME280;73634;47.068;15.426;2023-12-04T11:48:56;97763.94;;;1.80;52.42
83664;BME280;73634;47.068;15.426;2023-12-04T11:59:25;97768.31;;;0.35;57.82
83664;BME280;73634;47.068;15.426;2023-12-04T12:01:53;97756.59;;;0.08;58.64
83664;BME280;73634;47.068;15.426;2023-12-04T12:04:20;97751.06;;;0.62;57.55
83664;BME280;73634;47.068;15.426;2023-12-04T12:06:45;97758.66;;;1.07;56.38
83664;BME280;73634;47.068;15.426;2023-12-04T12:09:11;97750.41;;;-0.29;59.73
83664;BME280;73634;47.068;15.426;2023-12-04T12:11:36;97745.34;;;-0.49;62.30
83664;BME280;73634;47.068;15.426;2023-12-04T12:14:02;97748.03;;;-0.11;60.81
83664;BME280;73634;47.068;15.426;2023-12-04T12:16:27;97755.56;;;-0.49;60.54
83664;BME280;73634;47.068;15.426;2023-12-04T12:18:53;97748.88;;;-0.57;61.23
83664;BME280;73634;47.068;15.426;2023-12-04T12:23:35;97732.56;;;-1.28;63.43
83664;BME280;73634;47.068;15.426;2023-12-04T12:26:00;97728.88;;;-0.86;62.88
83664;BME280;73634;47.068;15.426;2023-12-04T12:28:25;97720.00;;;-0.57;61.62
83664;BME280;73634;47.068;15.426;2023-12-04T12:30:51;97721.69;;;-0.25;61.12
83664;BME280;73634;47.068;15.426;2023-12-04T12:33:19;97710.66;;;-0.19;60.68
83664;BME280;73634;47.068;15.426;2023-12-04T12:35:46;97702.91;;;-0.63;63.18
83664;BME280;73634;47.068;15.426;2023-12-04T12:38:12;97699.94;;;-0.67;62.34
83664;BME280;73634;47.068;15.426;2023-12-04T12:40:37;97693.38;;;-0.30;61.17
83664;BME280;73634;47.068;15.426;2023-12-04T12:43:04;97699.50;;;-0.38;61.33
83664;BME280;73634;47.068;15.426;2023-12-04T12:48:02;97687.41;;;-0.04;59.60
83664;BME280;73634;47.068;15.426;2023-12-04T12:50:27;97683.78;;;-0.41;61.58
83664;BME280;73634;47.068;15.426;2023-12-04T12:52:52;97681.06;;;-0.59;60.01
83664;BME280;73634;47.068;15.426;2023-12-04T12:55:24;97683.44;;;-0.78;60.35
83664;BME280;73634;47.068;15.426;2023-12-04T12:57:50;97685.25;;;-0.85;60.89
83664;BME280;73634;47.068;15.426;2023-12-04T13:00:16;97681.69;;;-0.71;60.19
83664;BME280;73634;47.068;15.426;2023-12-04T13:02:44;97676.75;;;-0.59;60.30
83664;BME280;73634;47.068;15.426;2023-12-04T13:05:09;97657.25;;;-0.40;59.62
83664;BME280;73634;47.068;15.426;2023-12-04T13:07:36;97651.09;;;-0.32;58.66
83664;BME280;73634;47.068;15.426;2023-12-04T13:10:02;97648.91;;;-0.16;59.36
83664;BME280;73634;47.068;15.426;2023-12-04T13:15:02;97644.69;;;-0.42;59.39
83664;BME280;73634;47.068;15.426;2023-12-04T13:17:28;97641.94;;;-0.47;59.85
83664;BME280;73634;47.068;15.426;2023-12-04T13:19:54;97633.78;;;-0.30;59.72
83664;BME280;73634;47.068;15.426;2023-12-04T13:22:20;97625.19;;;0.02;59.28
83664;BME280;73634;47.068;15.426;2023-12-04T13:24:45;97627.09;;;0.13;58.73
83664;BME280;73634;47.068;15.426;2023-12-04T13:27:10;97623.00;;;-0.39;60.04
83664;BME280;73634;47.068;15.426;2023-12-04T13:29:36;97624.75;;;-0.26;60.68
83664;BME280;73634;47.068;15.426;2023-12-04T13:32:02;97623.31;;;-0.74;62.12
83664;BME280;73634;47.068;15.426;2023-12-04T13:34:27;97622.28;;;-0.53;61.87
83664;BME280;73634;47.068;15.426;2023-12-04T13:39:28;97629.59;;;-0.76;62.35
83664;BME280;73634;47.068;15.426;2023-12-04T13:42:13;97635.34;;;-1.01;64.01
83664;BME280;73634;47.068;15.426;2023-12-04T13:44:57;97633.34;;;-0.79;63.21
83664;BME280;73634;47.068;15.426;2023-12-04T13:47:22;97630.22;;;-0.81;63.13
83664;BME280;73634;47.068;15.426;2023-12-04T13:49:47;97633.38;;;-0.92;64.00
83664;BME280;73634;47.068;15.426;2023-12-04T13:52:14;97633.59;;;-1.00;64.05
83664;BME280;73634;47.068;15.426;2023-12-04T13:54:39;97641.06;;;-1.12;64.97
83664;BME280;73634;47.068;15.426;2023-12-04T13:57:12;97650.47;;;-1.06;64.93
83664;BME280;73634;47.068;15.426;2023-12-04T13:59:45;97642.81;;;-0.99;64.27
83664;BME280;73634;47.068;15.426;2023-12-04T14:03:55;97630.25;;;-1.07;64.49
83664;BME280;73634;47.068;15.426;2023-12-04T14:06:31;97632.59;;;-1.06;64.31
83664;BME280;73634;47.068;15.426;2023-12-04T14:08:57;97633.00;;;-1.15;65.35
83664;BME280;73634;47.068;15.426;2023-12-04T14:11:23;97628.28;;;-1.12;65.97
83664;BME280;73634;47.068;15.426;2023-12-04T14:13:49;97627.28;;;-0.91;64.85
83664;BME280;73634;47.068;15.426;2023-12-04T14:16:14;97626.50;;;-0.85;64.33
83664;BME280;73634;47.068;15.426;2023-12-04T14:18:41;97619.78;;;-0.73;64.52